createdAt,value
2023-04-15T00:02:19.560Z,81.01
2023-04-15T00:04:47.871Z,81.02
2023-04-15T00:07:16.238Z,80.85
2023-04-15T00:09:44.676Z,81.00
2023-04-15T00:12:13.085Z,80.82
2023-04-15T00:14:40.905Z,80.87
2023-04-15T00:17:10.060Z,80.70
2023-04-15T00:19:38.294Z,80.74
2023-04-15T00:22:06.211Z,80.68
2023-04-15T00:24:33.971Z,80.99
2023-04-15T00:27:01.768Z,80.94
2023-04-15T00:29:29.699Z,80.81
2023-04-15T00:31:57.964Z,80.46
2023-04-15T00:34:27.929Z,80.37
2023-04-15T00:36:55.749Z,80.13
2023-04-15T00:39:23.690Z,80.28
2023-04-15T00:41:51.461Z,80.32
2023-04-15T00:44:20.019Z,80.04
2023-04-15T00:46:50.335Z,80.22
2023-04-15T00:49:19.289Z,80.07
2023-04-15T00:51:48.457Z,80.18
2023-04-15T00:54:16.368Z,80.03
2023-04-15T00:56:44.513Z,80.15
2023-04-15T00:59:12.506Z,80.37
2023-04-15T01:01:41.736Z,81.13
2023-04-15T01:04:11.054Z,80.80
2023-04-15T01:06:39.125Z,81.05
2023-04-15T01:09:08.212Z,80.87
2023-04-15T01:11:36.515Z,80.51
2023-04-15T01:14:04.772Z,80.90
2023-04-15T01:16:32.834Z,81.32
2023-04-15T01:19:01.267Z,81.17
2023-04-15T01:21:29.901Z,81.96
2023-04-15T01:23:58.491Z,81.78
2023-04-15T01:26:28.187Z,81.62
2023-04-15T01:28:56.401Z,82.13
2023-04-15T01:31:25.138Z,82.21
2023-04-15T01:33:53.000Z,82.21
2023-04-15T01:36:20.993Z,81.62
2023-04-15T01:38:49.122Z,81.99
2023-04-15T01:41:17.191Z,82.18
2023-04-15T01:43:46.986Z,82.32
2023-04-15T01:46:14.797Z,82.85
2023-04-15T01:48:42.632Z,82.56
2023-04-15T01:51:10.407Z,82.91
2023-04-15T01:53:38.315Z,82.50
2023-04-15T01:56:07.254Z,82.53
2023-04-15T01:58:35.037Z,82.55
2023-04-15T02:01:04.637Z,82.48
2023-04-15T02:03:33.608Z,82.48
2023-04-15T02:06:01.346Z,82.54
2023-04-15T02:08:29.799Z,82.42
2023-04-15T02:10:58.064Z,82.15
2023-04-15T02:13:26.387Z,82.34
2023-04-15T02:15:56.365Z,81.88
2023-04-15T02:18:25.574Z,81.92
2023-04-15T02:20:53.613Z,82.32
2023-04-15T02:23:21.321Z,82.01
2023-04-15T02:25:53.822Z,82.09
2023-04-15T02:28:22.604Z,82.35
2023-04-15T02:30:52.752Z,82.39
2023-04-15T02:33:21.032Z,82.77
2023-04-15T02:35:50.187Z,82.56
2023-04-15T02:38:18.011Z,82.90
2023-04-15T02:40:46.172Z,83.22
2023-04-15T02:43:13.967Z,83.15
2023-04-15T02:45:43.472Z,83.39
2023-04-15T02:48:11.514Z,83.87
2023-04-15T02:50:40.716Z,83.91
2023-04-15T02:53:13.408Z,83.95
2023-04-15T02:55:41.214Z,83.53
2023-04-15T02:58:08.918Z,83.32
2023-04-15T03:00:36.707Z,83.92
2023-04-15T03:03:06.142Z,83.56
2023-04-15T03:05:34.320Z,84.04
2023-04-15T03:08:04.772Z,84.57
2023-04-15T03:10:33.922Z,85.32
2023-04-15T03:13:02.865Z,84.84
2023-04-15T03:15:30.749Z,85.05
2023-04-15T03:17:58.586Z,85.94
2023-04-15T03:20:26.472Z,85.80
2023-04-15T03:22:54.399Z,85.67
2023-04-15T03:25:24.269Z,85.68
2023-04-15T03:27:53.597Z,85.54
2023-04-15T03:30:21.473Z,85.90
2023-04-15T03:32:49.313Z,85.60
2023-04-15T03:35:17.335Z,85.67
2023-04-15T03:37:45.144Z,85.82
2023-04-15T03:40:13.799Z,85.54
2023-04-15T03:42:41.631Z,85.50
2023-04-15T03:45:11.906Z,85.24
2023-04-15T03:47:39.663Z,85.52
2023-04-15T03:50:08.541Z,85.26
2023-04-15T03:52:36.508Z,85.22
2023-04-15T03:55:04.356Z,85.10
2023-04-15T03:57:32.241Z,85.35
2023-04-15T03:59:59.949Z,85.65
2023-04-15T04:02:29.169Z,85.38
2023-04-15T04:04:57.037Z,85.85
2023-04-15T04:07:25.439Z,85.73
2023-04-15T04:09:53.323Z,85.93
2023-04-15T04:12:21.064Z,86.36
2023-04-15T04:14:48.757Z,86.31
2023-04-15T04:17:16.521Z,86.61
2023-04-15T04:19:45.817Z,86.34
2023-04-15T04:22:13.566Z,86.35
2023-04-15T04:24:41.364Z,86.05
2023-04-15T04:27:09.136Z,86.27
2023-04-15T04:29:36.884Z,86.25
2023-04-15T04:32:04.724Z,86.20
2023-04-15T04:34:32.512Z,86.13
2023-04-15T04:37:01.687Z,85.84
2023-04-15T04:39:29.409Z,86.10
2023-04-15T04:41:57.508Z,85.58
2023-04-15T04:44:25.371Z,85.81
2023-04-15T04:46:53.121Z,85.69
2023-04-15T04:49:20.944Z,85.34
2023-04-15T04:51:48.892Z,85.27
2023-04-15T04:54:18.102Z,85.03
2023-04-15T04:56:46.358Z,84.76
2023-04-15T04:59:14.116Z,84.14
2023-04-15T05:01:42.077Z,85.08
2023-04-15T05:04:10.024Z,84.60
2023-04-15T05:06:37.890Z,84.57
2023-04-15T05:09:05.635Z,84.77
2023-04-15T05:11:34.721Z,84.63
2023-04-15T05:14:02.558Z,83.99
2023-04-15T05:16:30.382Z,83.64
2023-04-15T05:18:58.118Z,83.72
2023-04-15T05:21:25.918Z,83.47
2023-04-15T05:23:53.702Z,83.35
2023-04-15T05:26:22.109Z,83.12
2023-04-15T05:28:51.215Z,82.81
2023-04-15T05:31:19.016Z,82.52
2023-04-15T05:33:46.763Z,82.39
2023-04-15T05:36:14.497Z,82.27
2023-04-15T05:38:42.435Z,82.26
2023-04-15T05:41:10.273Z,81.52
2023-04-15T05:43:38.033Z,81.45
2023-04-15T05:46:08.551Z,81.05
2023-04-15T05:48:36.568Z,80.36
2023-04-15T05:51:04.430Z,80.38
2023-04-15T05:53:32.119Z,80.18
2023-04-15T05:56:00.037Z,79.98
2023-04-15T05:58:27.937Z,80.03
2023-04-15T06:00:55.788Z,79.32
2023-04-15T06:03:25.524Z,78.94
2023-04-15T06:05:53.402Z,78.69
2023-04-15T06:08:21.503Z,78.23
2023-04-15T06:10:49.330Z,78.17
2023-04-15T06:13:17.207Z,77.63
2023-04-15T06:15:44.998Z,78.11
2023-04-15T06:18:13.020Z,77.67
2023-04-15T06:20:42.179Z,77.27
2023-04-15T06:23:09.913Z,76.90
2023-04-15T06:25:37.695Z,76.55
2023-04-15T06:28:05.988Z,76.48
2023-04-15T06:30:33.773Z,76.15
2023-04-15T06:33:03.341Z,76.00
2023-04-15T06:35:31.141Z,76.52
2023-04-15T06:38:00.264Z,76.13
2023-04-15T06:40:28.230Z,76.38
2023-04-15T06:42:56.454Z,76.38
2023-04-15T06:45:24.244Z,76.55
2023-04-15T06:47:52.034Z,76.83
2023-04-15T06:50:19.837Z,76.42
2023-04-15T06:52:47.643Z,76.56
2023-04-15T06:55:16.784Z,76.52
2023-04-15T06:57:44.482Z,76.68
2023-04-15T07:00:13.557Z,77.05
2023-04-15T07:02:41.562Z,77.08
2023-04-15T07:05:09.997Z,77.46
2023-04-15T07:07:38.512Z,77.84
2023-04-15T07:10:07.415Z,77.89
2023-04-15T07:12:36.849Z,78.50
2023-04-15T07:15:05.473Z,78.45
2023-04-15T07:17:33.252Z,78.28
2023-04-15T07:20:01.022Z,78.79
2023-04-15T07:22:28.734Z,78.61
2023-04-15T07:24:56.660Z,78.79
2023-04-15T07:27:24.368Z,78.86
2023-04-15T07:29:53.533Z,78.64
2023-04-15T07:32:21.346Z,78.63
2023-04-15T07:34:49.080Z,78.72
2023-04-15T07:37:17.494Z,78.68
2023-04-15T07:39:45.209Z,78.42
2023-04-15T07:42:13.068Z,78.40
2023-04-15T07:44:41.123Z,78.60
2023-04-15T07:47:10.698Z,78.67
2023-04-15T07:49:38.546Z,78.87
2023-04-15T07:52:06.634Z,79.59
2023-04-15T07:54:34.358Z,79.28
2023-04-15T07:57:03.098Z,79.23
2023-04-15T07:59:33.355Z,79.16
2023-04-15T08:02:01.324Z,79.01
2023-04-15T08:04:31.204Z,78.93
2023-04-15T08:06:59.106Z,78.93
2023-04-15T08:09:27.182Z,79.17
2023-04-15T08:11:55.140Z,79.56
2023-04-15T08:14:22.984Z,79.26
2023-04-15T08:16:50.818Z,79.56
2023-04-15T08:19:18.601Z,79.93
2023-04-15T08:21:47.878Z,80.05
2023-04-15T08:24:15.814Z,81.22
2023-04-15T08:26:43.583Z,81.75
2023-04-15T08:29:11.353Z,81.05
2023-04-15T08:31:39.111Z,81.78
2023-04-15T08:34:07.005Z,81.33
2023-04-15T08:36:34.769Z,80.88
2023-04-15T08:39:04.970Z,80.88
2023-04-15T08:41:40.841Z,80.84
2023-04-15T08:44:08.963Z,80.61
2023-04-15T08:46:36.984Z,80.33
2023-04-15T08:49:06.045Z,80.26
2023-04-15T08:51:34.066Z,80.22
2023-04-15T08:54:03.568Z,80.21
2023-04-15T08:56:33.636Z,79.29
2023-04-15T08:59:01.949Z,79.49
2023-04-15T09:01:30.075Z,79.70
2023-04-15T09:04:00.080Z,79.19
2023-04-15T09:06:28.118Z,79.03
2023-04-15T09:08:55.870Z,78.68
2023-04-15T09:11:25.012Z,78.68
2023-04-15T09:13:52.762Z,78.52
2023-04-15T09:16:20.720Z,78.70
2023-04-15T09:18:48.536Z,78.41
2023-04-15T09:21:18.098Z,78.39
2023-04-15T09:23:56.691Z,78.42
2023-04-15T09:26:34.608Z,78.40
2023-04-15T09:29:07.455Z,78.45
2023-04-15T09:31:35.520Z,79.64
2023-04-15T09:34:03.947Z,79.98
2023-04-15T09:36:42.608Z,79.97
2023-04-15T09:39:10.464Z,80.17
2023-04-15T09:41:40.338Z,80.13
2023-04-15T09:44:08.341Z,80.96
2023-04-15T09:46:43.321Z,80.84
2023-04-15T09:49:12.319Z,80.88
2023-04-15T09:51:40.175Z,80.75
2023-04-15T09:54:07.922Z,80.91
2023-04-15T09:56:37.837Z,81.33
2023-04-15T09:59:07.595Z,81.79
2023-04-15T10:01:36.143Z,82.02
2023-04-15T10:04:05.979Z,82.93
2023-04-15T10:06:35.513Z,83.34
2023-04-15T10:09:03.519Z,82.79
2023-04-15T10:11:32.823Z,83.43
2023-04-15T10:14:01.954Z,84.02
2023-04-15T10:16:33.895Z,83.90
2023-04-15T10:19:04.481Z,83.95
2023-04-15T10:21:32.308Z,84.08
2023-04-15T10:24:01.843Z,84.39
2023-04-15T10:26:29.969Z,83.86
2023-04-15T10:28:59.944Z,84.07
2023-04-15T10:31:28.093Z,83.53
2023-04-15T10:33:58.338Z,83.18
2023-04-15T10:36:26.678Z,83.80
2023-04-15T10:38:54.453Z,83.69
2023-04-15T10:41:24.488Z,83.75
2023-04-15T10:43:53.804Z,84.07
2023-04-15T10:46:26.807Z,84.58
2023-04-15T10:48:55.227Z,84.62
2023-04-15T10:51:32.090Z,84.71
2023-04-15T10:54:00.927Z,84.81
2023-04-15T10:56:30.212Z,84.98
2023-04-15T10:59:00.788Z,85.27
2023-04-15T11:01:53.600Z,85.18
2023-04-15T11:04:52.795Z,85.64
2023-04-15T11:07:39.379Z,85.83
2023-04-15T11:10:52.810Z,85.69
2023-04-15T11:13:28.238Z,85.40
2023-04-15T11:16:01.625Z,85.41
2023-04-15T11:18:33.951Z,85.56
2023-04-15T11:21:04.555Z,85.44
2023-04-15T11:23:35.782Z,85.62
2023-04-15T11:26:08.872Z,85.91
2023-04-15T11:28:38.776Z,85.94
2023-04-15T11:31:11.255Z,85.66
2023-04-15T11:33:40.473Z,86.75
2023-04-15T11:36:09.394Z,87.21
2023-04-15T11:38:38.903Z,86.82
2023-04-15T11:41:06.781Z,87.54
2023-04-15T11:43:35.529Z,86.62
2023-04-15T11:46:04.562Z,87.17
2023-04-15T11:48:34.542Z,87.14
2023-04-15T11:51:03.564Z,87.68
2023-04-15T11:53:43.537Z,87.63
2023-04-15T11:56:12.678Z,87.52
2023-04-15T11:58:40.609Z,87.03
2023-04-15T12:01:08.486Z,86.67
2023-04-15T12:03:41.021Z,87.07
2023-04-15T12:06:14.162Z,86.66
2023-04-15T12:09:00.756Z,87.31
2023-04-15T12:11:37.530Z,87.64
2023-04-15T12:14:09.424Z,87.00
2023-04-15T12:16:48.008Z,86.94
2023-04-15T12:19:19.160Z,86.35
2023-04-15T12:21:49.090Z,86.58
2023-04-15T12:24:22.171Z,86.45
2023-04-15T12:26:52.171Z,86.16
2023-04-15T12:29:21.090Z,86.86
2023-04-15T12:31:53.174Z,86.58
2023-04-15T12:34:29.402Z,86.55
2023-04-15T12:36:58.838Z,86.15
2023-04-15T12:39:30.613Z,86.53
2023-04-15T12:41:58.833Z,86.14
2023-04-15T12:44:27.890Z,86.70
2023-04-15T12:46:56.559Z,86.59
2023-04-15T12:49:25.453Z,86.70
2023-04-15T12:51:55.022Z,86.95
2023-04-15T12:54:22.805Z,86.67
2023-04-15T12:56:52.515Z,86.63
2023-04-15T12:59:20.389Z,86.58
2023-04-15T13:01:49.270Z,86.71
2023-04-15T13:04:17.902Z,86.82
2023-04-15T13:06:45.953Z,86.79
2023-04-15T13:09:13.884Z,87.16
2023-04-15T13:11:41.948Z,87.24
2023-04-15T13:14:13.045Z,87.03
2023-04-15T13:16:41.490Z,87.20
2023-04-15T13:19:09.410Z,87.44
2023-04-15T13:21:37.250Z,88.38
2023-04-15T13:24:07.209Z,88.44
2023-04-15T13:26:35.987Z,87.80
2023-04-15T13:29:04.977Z,88.61
2023-04-15T13:31:34.220Z,88.63
2023-04-15T13:34:02.002Z,88.32
2023-04-15T13:36:29.860Z,89.23
2023-04-15T13:38:58.416Z,88.72
2023-04-15T13:41:26.254Z,88.59
2023-04-15T13:43:53.993Z,88.80
2023-04-15T13:46:21.997Z,88.62
2023-04-15T13:48:51.464Z,88.70
2023-04-15T13:51:19.176Z,88.81
2023-04-15T13:53:46.940Z,88.81
2023-04-15T13:56:14.687Z,89.38
2023-04-15T13:58:42.522Z,89.57
2023-04-15T14:01:10.375Z,89.26
2023-04-15T14:03:38.441Z,89.55
2023-04-15T14:06:08.027Z,89.24
2023-04-15T14:08:35.985Z,88.97
2023-04-15T14:11:03.849Z,89.10
2023-04-15T14:13:31.876Z,89.20
2023-04-15T14:15:59.606Z,88.86
2023-04-15T14:18:27.500Z,89.14
2023-04-15T14:20:55.616Z,89.10
2023-04-15T14:23:24.893Z,89.62
2023-04-15T14:25:52.760Z,89.09
2023-04-15T14:28:20.590Z,88.79
2023-04-15T14:30:48.366Z,88.71
2023-04-15T14:33:16.306Z,88.93
2023-04-15T14:35:44.337Z,89.71
2023-04-15T14:38:12.258Z,89.79
2023-04-15T14:40:42.733Z,90.67
2023-04-15T14:43:10.676Z,90.35
2023-04-15T14:45:41.881Z,90.23
2023-04-15T14:48:12.818Z,90.49
2023-04-15T14:50:41.356Z,89.90
2023-04-15T14:53:09.213Z,89.79
2023-04-15T14:55:36.965Z,89.60
2023-04-15T14:58:08.098Z,89.98
2023-04-15T15:00:39.212Z,90.00
2023-04-15T15:03:12.490Z,89.94
2023-04-15T15:05:40.781Z,89.64
2023-04-15T15:08:09.115Z,89.56
2023-04-15T15:10:49.470Z,89.42
2023-04-15T15:13:19.982Z,89.67
2023-04-15T15:15:49.408Z,89.08
2023-04-15T15:18:19.319Z,89.12
2023-04-15T15:20:47.506Z,89.45
2023-04-15T15:23:15.352Z,90.06
2023-04-15T15:25:43.193Z,89.65
2023-04-15T15:28:11.341Z,89.75
2023-04-15T15:30:40.660Z,89.58
2023-04-15T15:33:09.397Z,89.31
2023-04-15T15:35:37.252Z,89.83
2023-04-15T15:38:05.433Z,89.60
2023-04-15T15:40:33.232Z,89.68
2023-04-15T15:43:01.041Z,89.49
2023-04-15T15:45:28.923Z,89.67
2023-04-15T15:47:58.774Z,89.67
2023-04-15T15:50:26.794Z,89.65
2023-04-15T15:52:55.151Z,89.33
2023-04-15T15:55:23.395Z,89.34
2023-04-15T15:57:51.803Z,89.05
2023-04-15T16:00:19.678Z,89.66
2023-04-15T16:05:19.854Z,89.72
2023-04-15T16:07:47.587Z,89.58
2023-04-15T16:10:16.068Z,89.69
2023-04-15T16:12:43.947Z,90.01
2023-04-15T16:15:13.359Z,89.96
2023-04-15T16:17:41.266Z,90.04
2023-04-15T16:20:09.969Z,90.04
2023-04-15T16:22:39.099Z,90.18
2023-04-15T16:25:07.721Z,90.72
2023-04-15T16:27:43.442Z,90.51
2023-04-15T16:30:18.483Z,90.80
2023-04-15T16:32:46.802Z,90.81
2023-04-15T16:35:16.241Z,90.33
2023-04-15T16:37:45.325Z,89.44
2023-04-15T16:40:13.622Z,89.61
2023-04-15T16:42:43.405Z,89.93
2023-04-15T16:45:12.205Z,89.89
2023-04-15T16:47:40.457Z,89.54
2023-04-15T16:50:09.129Z,88.97
2023-04-15T16:52:37.473Z,89.33
2023-04-15T16:55:07.394Z,89.57
2023-04-15T16:57:50.804Z,89.40
2023-04-15T17:00:23.071Z,89.63
2023-04-15T17:02:51.092Z,89.71
2023-04-15T17:05:19.208Z,89.35
2023-04-15T17:07:46.914Z,89.47
2023-04-15T17:10:17.348Z,89.07
2023-04-15T17:12:45.322Z,89.20
2023-04-15T17:15:13.142Z,88.94
2023-04-15T17:17:41.109Z,89.04
2023-04-15T17:20:09.378Z,88.89
2023-04-15T17:22:37.298Z,89.14
2023-04-15T17:25:05.883Z,88.90
2023-04-15T17:27:35.002Z,88.95
2023-04-15T17:30:02.956Z,88.87
2023-04-15T17:32:34.199Z,89.39
2023-04-15T17:35:02.786Z,89.03
2023-04-15T17:37:30.674Z,89.03
2023-04-15T17:39:58.436Z,88.98
2023-04-15T17:42:26.361Z,88.98
2023-04-15T17:44:55.451Z,88.90
2023-04-15T17:47:23.252Z,88.78
2023-04-15T17:49:51.147Z,88.64
2023-04-15T17:52:18.876Z,88.64
2023-04-15T17:54:46.891Z,89.01
2023-04-15T17:57:14.746Z,89.09
2023-04-15T17:59:44.090Z,89.05
2023-04-15T18:02:13.652Z,88.99
2023-04-15T18:04:41.804Z,89.33
2023-04-15T18:07:09.924Z,89.43
2023-04-15T18:09:37.688Z,89.58
2023-04-15T18:12:07.589Z,89.93
2023-04-15T18:14:35.535Z,89.78
2023-04-15T18:17:03.603Z,89.95
2023-04-15T18:19:32.970Z,90.01
2023-04-15T18:22:00.963Z,90.12
2023-04-15T18:24:28.809Z,90.25
2023-04-15T18:26:57.109Z,90.29
2023-04-15T18:29:25.258Z,90.77
2023-04-15T18:31:53.268Z,90.49
2023-04-15T18:34:21.177Z,90.47
2023-04-15T18:36:50.351Z,90.60
2023-04-15T18:39:18.141Z,90.70
2023-04-15T18:41:45.909Z,90.58
2023-04-15T18:44:13.626Z,90.47
2023-04-15T18:46:41.490Z,90.37
2023-04-15T18:49:09.210Z,90.45
2023-04-15T18:51:37.126Z,90.37
2023-04-15T18:54:06.506Z,90.61
2023-04-15T18:56:34.281Z,90.23
2023-04-15T18:59:09.388Z,90.71
2023-04-15T19:01:49.830Z,90.43
2023-04-15T19:04:17.650Z,90.64
2023-04-15T19:06:45.372Z,90.78
2023-04-15T19:09:15.080Z,90.84
2023-04-15T19:11:43.617Z,91.13
2023-04-15T19:14:12.006Z,91.15
2023-04-15T19:16:39.865Z,91.26
2023-04-15T19:19:07.800Z,91.45
2023-04-15T19:21:35.849Z,91.52
2023-04-15T19:24:03.675Z,91.45
2023-04-15T19:26:32.833Z,91.60
2023-04-15T19:29:00.766Z,91.93
2023-04-15T19:31:28.567Z,92.07
2023-04-15T19:33:56.778Z,91.68
2023-04-15T19:36:24.533Z,92.08
2023-04-15T19:38:52.335Z,91.94
2023-04-15T19:41:20.117Z,91.83
2023-04-15T19:43:49.196Z,92.02
2023-04-15T19:46:16.998Z,91.90
2023-04-15T19:48:45.006Z,91.85
2023-04-15T19:51:12.960Z,92.01
2023-04-15T19:53:41.317Z,91.77
2023-04-15T19:56:09.068Z,91.91
2023-04-15T19:58:37.378Z,92.03
2023-04-15T20:01:06.596Z,92.09
2023-04-15T20:03:34.526Z,92.28
2023-04-15T20:06:02.354Z,92.23
2023-04-15T20:08:30.068Z,92.42
2023-04-15T20:10:58.182Z,93.24
2023-04-15T20:13:25.989Z,92.50
2023-04-15T20:15:53.766Z,92.99
2023-04-15T20:18:22.906Z,92.81
2023-04-15T20:20:50.720Z,92.77
2023-04-15T20:23:18.626Z,92.51
2023-04-15T20:25:46.356Z,92.86
2023-04-15T20:28:14.130Z,93.03
2023-04-15T20:30:41.927Z,92.90
2023-04-15T20:33:09.664Z,92.69
2023-04-15T20:35:38.949Z,92.81
2023-04-15T20:38:06.687Z,92.85
2023-04-15T20:40:34.618Z,92.83
2023-04-15T20:43:02.392Z,92.65
2023-04-15T20:45:30.092Z,92.52
2023-04-15T20:47:58.019Z,92.32
2023-04-15T20:50:25.781Z,92.00
2023-04-15T20:52:54.877Z,92.22
2023-04-15T20:55:22.611Z,91.88
2023-04-15T20:57:50.427Z,91.80
2023-04-15T21:00:18.256Z,91.71
2023-04-15T21:02:46.157Z,91.67
2023-04-15T21:05:13.918Z,91.81
2023-04-15T21:07:42.068Z,91.65
2023-04-15T21:10:11.995Z,91.53
2023-04-15T21:12:41.032Z,91.46
2023-04-15T21:15:09.869Z,91.54
2023-04-15T21:17:37.748Z,91.48
2023-04-15T21:20:06.433Z,91.70
2023-04-15T21:22:34.264Z,91.41
2023-04-15T21:25:02.081Z,91.52
2023-04-15T21:27:31.175Z,91.48
2023-04-15T21:29:58.900Z,91.18
2023-04-15T21:32:26.669Z,91.57
2023-04-15T21:34:54.447Z,91.50
2023-04-15T21:37:22.188Z,91.35
2023-04-15T21:39:49.911Z,91.38
2023-04-15T21:42:17.787Z,90.87
2023-04-15T21:44:46.922Z,91.22
2023-04-15T21:47:14.757Z,90.92
2023-04-15T21:49:42.714Z,91.05
2023-04-15T21:52:10.974Z,91.09
2023-04-15T21:54:38.678Z,91.01
2023-04-15T21:57:06.399Z,91.00
2023-04-15T21:59:34.116Z,91.27
2023-04-15T22:02:03.340Z,90.90
2023-04-15T22:04:31.260Z,90.80
2023-04-15T22:07:01.622Z,90.73
2023-04-15T22:09:29.427Z,90.68
2023-04-15T22:11:57.589Z,90.69
2023-04-15T22:14:25.346Z,90.65
2023-04-15T22:16:53.056Z,90.64
2023-04-15T22:19:22.141Z,90.50
2023-04-15T22:21:50.838Z,90.91
2023-04-15T22:24:34.048Z,90.76
2023-04-15T22:27:06.285Z,90.49
2023-04-15T22:29:34.122Z,90.43
2023-04-15T22:32:01.952Z,90.72
2023-04-15T22:34:31.065Z,90.73
2023-04-15T22:36:58.798Z,90.77
2023-04-15T22:39:26.596Z,91.10
2023-04-15T22:41:54.336Z,90.69
2023-04-15T22:44:22.040Z,90.96
2023-04-15T22:46:51.606Z,90.95
2023-04-15T22:49:19.402Z,90.83
2023-04-15T22:51:48.562Z,90.98
2023-04-15T22:54:16.268Z,90.91
2023-04-15T22:56:44.005Z,90.69
2023-04-15T22:59:11.883Z,90.60
2023-04-15T23:01:39.722Z,90.54
2023-04-15T23:04:22.872Z,90.23
2023-04-15T23:06:52.965Z,90.23
2023-04-15T23:09:20.956Z,90.18
2023-04-15T23:11:48.852Z,90.10
2023-04-15T23:14:16.676Z,90.09
2023-04-15T23:16:45.490Z,90.14
2023-04-15T23:19:13.228Z,90.05
2023-04-15T23:21:40.926Z,90.43
2023-04-15T23:24:10.041Z,90.42
2023-04-15T23:26:37.893Z,90.22
2023-04-15T23:29:05.783Z,90.21
2023-04-15T23:31:33.555Z,90.20
2023-04-15T23:34:01.356Z,90.11
2023-04-15T23:36:29.152Z,90.21
2023-04-15T23:38:56.872Z,90.33
2023-04-15T23:41:26.057Z,90.05
2023-04-15T23:43:53.795Z,90.06
2023-04-15T23:46:21.527Z,89.94
2023-04-15T23:48:49.696Z,89.96
2023-04-15T23:51:17.940Z,89.85
2023-04-15T23:53:45.740Z,90.05
2023-04-15T23:56:13.460Z,90.13
2023-04-15T23:58:42.618Z,89.74
